sensor_id;sensor_type;location;lat;lon;timestamp;P1;durP1;ratioP1;P2;durP2;ratioP2
24145;SDS011;12308;50.948;4.706;2023-05-19T00:00:17;21.13;;;12.27;;
24145;SDS011;12308;50.948;4.706;2023-05-19T00:02:43;18.50;;;12.15;;
24145;SDS011;12308;50.948;4.706;2023-05-19T00:05:10;20.95;;;12.70;;
24145;SDS011;12308;50.948;4.706;2023-05-19T00:07:39;23.73;;;12.57;;
24145;SDS011;12308;50.948;4.706;2023-05-19T00:10:07;20.80;;;13.75;;
24145;SDS011;12308;50.948;4.706;2023-05-19T00:12:34;18.02;;;12.13;;
24145;SDS011;12308;50.948;4.706;2023-05-19T00:15:01;23.10;;;12.70;;
24145;SDS011;12308;50.948;4.706;2023-05-19T00:17:27;21.88;;;12.00;;
24145;SDS011;12308;50.948;4.706;2023-05-19T00:19:54;24.65;;;13.07;;
24145;SDS011;12308;50.948;4.706;2023-05-19T00:22:19;25.25;;;12.07;;
24145;SDS011;12308;50.948;4.706;2023-05-19T00:24:45;21.35;;;12.48;;
24145;SDS011;12308;50.948;4.706;2023-05-19T00:27:11;25.05;;;13.73;;
24145;SDS011;12308;50.948;4.706;2023-05-19T00:29:36;26.67;;;14.00;;
24145;SDS011;12308;50.948;4.706;2023-05-19T00:32:02;20.58;;;13.68;;
24145;SDS011;12308;50.948;4.706;2023-05-19T00:34:28;23.88;;;14.27;;
24145;SDS011;12308;50.948;4.706;2023-05-19T00:36:53;30.73;;;14.60;;
24145;SDS011;12308;50.948;4.706;2023-05-19T00:39:19;26.33;;;14.60;;
24145;SDS011;12308;50.948;4.706;2023-05-19T00:41:45;28.38;;;15.73;;
24145;SDS011;12308;50.948;4.706;2023-05-19T00:44:11;27.23;;;14.27;;
24145;SDS011;12308;50.948;4.706;2023-05-19T00:46:36;23.25;;;13.60;;
24145;SDS011;12308;50.948;4.706;2023-05-19T00:49:02;23.13;;;13.65;;
24145;SDS011;12308;50.948;4.706;2023-05-19T00:51:28;27.73;;;15.32;;
24145;SDS011;12308;50.948;4.706;2023-05-19T00:53:55;32.33;;;15.68;;
24145;SDS011;12308;50.948;4.706;2023-05-19T00:56:20;26.02;;;14.90;;
24145;SDS011;12308;50.948;4.706;2023-05-19T00:58:47;27.17;;;14.43;;
24145;SDS011;12308;50.948;4.706;2023-05-19T01:01:15;21.92;;;14.32;;
24145;SDS011;12308;50.948;4.706;2023-05-19T01:03:43;23.40;;;14.13;;
24145;SDS011;12308;50.948;4.706;2023-05-19T01:06:09;24.40;;;12.93;;
24145;SDS011;12308;50.948;4.706;2023-05-19T01:08:36;22.05;;;13.77;;
24145;SDS011;12308;50.948;4.706;2023-05-19T01:11:03;24.70;;;14.13;;
24145;SDS011;12308;50.948;4.706;2023-05-19T01:13:30;24.17;;;14.18;;
24145;SDS011;12308;50.948;4.706;2023-05-19T01:19:21;23.85;;;14.25;;
24145;SDS011;12308;50.948;4.706;2023-05-19T01:30:29;26.23;;;14.73;;
24145;SDS011;12308;50.948;4.706;2023-05-19T01:33:04;26.60;;;14.95;;
24145;SDS011;12308;50.948;4.706;2023-05-19T01:35:32;32.28;;;14.98;;
24145;SDS011;12308;50.948;4.706;2023-05-19T01:38:00;27.40;;;15.60;;
24145;SDS011;12308;50.948;4.706;2023-05-19T01:40:28;27.65;;;15.38;;
24145;SDS011;12308;50.948;4.706;2023-05-19T01:42:55;26.70;;;15.40;;
24145;SDS011;12308;50.948;4.706;2023-05-19T01:45:23;30.35;;;15.43;;
24145;SDS011;12308;50.948;4.706;2023-05-19T01:47:51;28.65;;;15.95;;
24145;SDS011;12308;50.948;4.706;2023-05-19T01:50:19;23.58;;;14.57;;
24145;SDS011;12308;50.948;4.706;2023-05-19T01:52:45;29.08;;;15.20;;
24145;SDS011;12308;50.948;4.706;2023-05-19T01:55:11;22.73;;;14.27;;
24145;SDS011;12308;50.948;4.706;2023-05-19T02:03:25;20.08;;;13.55;;
24145;SDS011;12308;50.948;4.706;2023-05-19T02:06:26;23.27;;;13.95;;
24145;SDS011;12308;50.948;4.706;2023-05-19T02:09:03;26.52;;;14.25;;
24145;SDS011;12308;50.948;4.706;2023-05-19T02:12:05;26.17;;;15.00;;
24145;SDS011;12308;50.948;4.706;2023-05-19T02:14:54;27.92;;;15.52;;
24145;SDS011;12308;50.948;4.706;2023-05-19T02:17:31;24.10;;;15.07;;
24145;SDS011;12308;50.948;4.706;2023-05-19T02:20:02;23.25;;;14.75;;
24145;SDS011;12308;50.948;4.706;2023-05-19T02:22:29;29.27;;;14.77;;
24145;SDS011;12308;50.948;4.706;2023-05-19T02:24:55;28.95;;;15.32;;
24145;SDS011;12308;50.948;4.706;2023-05-19T02:27:21;27.70;;;15.38;;
24145;SDS011;12308;50.948;4.706;2023-05-19T02:29:47;22.00;;;14.60;;
24145;SDS011;12308;50.948;4.706;2023-05-19T02:32:13;25.75;;;15.27;;
24145;SDS011;12308;50.948;4.706;2023-05-19T02:34:39;24.23;;;13.88;;
24145;SDS011;12308;50.948;4.706;2023-05-19T02:37:09;23.38;;;13.95;;
24145;SDS011;12308;50.948;4.706;2023-05-19T02:39:41;28.70;;;15.30;;
24145;SDS011;12308;50.948;4.706;2023-05-19T02:42:07;24.92;;;13.90;;
24145;SDS011;12308;50.948;4.706;2023-05-19T02:44:33;27.60;;;14.98;;
24145;SDS011;12308;50.948;4.706;2023-05-19T02:47:00;24.52;;;15.40;;
24145;SDS011;12308;50.948;4.706;2023-05-19T02:49:26;25.17;;;14.55;;
24145;SDS011;12308;50.948;4.706;2023-05-19T02:51:55;25.20;;;14.75;;
24145;SDS011;12308;50.948;4.706;2023-05-19T02:54:21;26.38;;;13.82;;
24145;SDS011;12308;50.948;4.706;2023-05-19T02:56:46;22.00;;;13.98;;
24145;SDS011;12308;50.948;4.706;2023-05-19T02:59:12;28.45;;;14.75;;
24145;SDS011;12308;50.948;4.706;2023-05-19T03:01:38;25.98;;;14.55;;
24145;SDS011;12308;50.948;4.706;2023-05-19T03:04:04;24.50;;;15.30;;
24145;SDS011;12308;50.948;4.706;2023-05-19T03:06:30;25.25;;;14.68;;
24145;SDS011;12308;50.948;4.706;2023-05-19T03:08:57;26.77;;;14.45;;
24145;SDS011;12308;50.948;4.706;2023-05-19T03:11:22;28.63;;;15.88;;
24145;SDS011;12308;50.948;4.706;2023-05-19T03:13:48;26.55;;;14.98;;
24145;SDS011;12308;50.948;4.706;2023-05-19T03:16:14;28.63;;;14.98;;
24145;SDS011;12308;50.948;4.706;2023-05-19T03:18:40;23.52;;;14.73;;
24145;SDS011;12308;50.948;4.706;2023-05-19T03:21:07;25.27;;;14.27;;
24145;SDS011;12308;50.948;4.706;2023-05-19T03:23:32;24.85;;;15.30;;
24145;SDS011;12308;50.948;4.706;2023-05-19T03:25:58;27.98;;;14.85;;
24145;SDS011;12308;50.948;4.706;2023-05-19T03:28:25;26.05;;;15.77;;
24145;SDS011;12308;50.948;4.706;2023-05-19T03:30:51;23.70;;;15.27;;
24145;SDS011;12308;50.948;4.706;2023-05-19T03:33:17;28.13;;;15.25;;
24145;SDS011;12308;50.948;4.706;2023-05-19T03:35:43;30.35;;;15.88;;
24145;SDS011;12308;50.948;4.706;2023-05-19T03:38:09;28.70;;;15.93;;
24145;SDS011;12308;50.948;4.706;2023-05-19T03:40:34;34.08;;;15.95;;
24145;SDS011;12308;50.948;4.706;2023-05-19T03:43:00;27.08;;;15.10;;
24145;SDS011;12308;50.948;4.706;2023-05-19T03:45:26;26.58;;;14.93;;
24145;SDS011;12308;50.948;4.706;2023-05-19T03:47:52;28.27;;;15.48;;
24145;SDS011;12308;50.948;4.706;2023-05-19T03:50:18;26.08;;;15.18;;
24145;SDS011;12308;50.948;4.706;2023-05-19T03:52:44;23.63;;;14.52;;
24145;SDS011;12308;50.948;4.706;2023-05-19T03:55:11;32.67;;;15.02;;
24145;SDS011;12308;50.948;4.706;2023-05-19T03:57:38;26.80;;;14.68;;
24145;SDS011;12308;50.948;4.706;2023-05-19T04:00:05;23.80;;;14.57;;
24145;SDS011;12308;50.948;4.706;2023-05-19T04:02:32;23.00;;;14.35;;
24145;SDS011;12308;50.948;4.706;2023-05-19T04:04:58;25.95;;;15.77;;
24145;SDS011;12308;50.948;4.706;2023-05-19T04:07:23;27.08;;;15.63;;
24145;SDS011;12308;50.948;4.706;2023-05-19T04:09:49;30.02;;;15.48;;
24145;SDS011;12308;50.948;4.706;2023-05-19T04:12:15;25.05;;;15.48;;
24145;SDS011;12308;50.948;4.706;2023-05-19T04:14:41;28.20;;;15.80;;
24145;SDS011;12308;50.948;4.706;2023-05-19T04:17:06;26.02;;;15.00;;
24145;SDS011;12308;50.948;4.706;2023-05-19T04:19:32;27.58;;;14.98;;
24145;SDS011;12308;50.948;4.706;2023-05-19T04:21:58;25.40;;;15.02;;
24145;SDS011;12308;50.948;4.706;2023-05-19T04:24:24;22.83;;;14.23;;
24145;SDS011;12308;50.948;4.706;2023-05-19T04:26:50;29.02;;;14.57;;
24145;SDS011;12308;50.948;4.706;2023-05-19T04:29:16;25.92;;;15.45;;
24145;SDS011;12308;50.948;4.706;2023-05-19T04:31:42;28.75;;;15.70;;
24145;SDS011;12308;50.948;4.706;2023-05-19T04:34:09;29.63;;;15.75;;
24145;SDS011;12308;50.948;4.706;2023-05-19T04:36:35;31.63;;;16.05;;
24145;SDS011;12308;50.948;4.706;2023-05-19T04:39:02;30.70;;;15.40;;
24145;SDS011;12308;50.948;4.706;2023-05-19T04:41:31;51.30;;;17.90;;
24145;SDS011;12308;50.948;4.706;2023-05-19T04:43:58;21.45;;;13.70;;
24145;SDS011;12308;50.948;4.706;2023-05-19T04:46:23;25.65;;;16.02;;
24145;SDS011;12308;50.948;4.706;2023-05-19T04:48:50;27.35;;;16.13;;
24145;SDS011;12308;50.948;4.706;2023-05-19T04:51:18;25.35;;;15.65;;
24145;SDS011;12308;50.948;4.706;2023-05-19T04:53:44;25.23;;;15.07;;
24145;SDS011;12308;50.948;4.706;2023-05-19T04:56:09;49.97;;;18.48;;
24145;SDS011;12308;50.948;4.706;2023-05-19T04:58:39;27.55;;;15.85;;
24145;SDS011;12308;50.948;4.706;2023-05-19T05:01:06;36.70;;;17.63;;
24145;SDS011;12308;50.948;4.706;2023-05-19T05:03:33;31.65;;;16.75;;
24145;SDS011;12308;50.948;4.706;2023-05-19T05:05:59;39.15;;;17.60;;
24145;SDS011;12308;50.948;4.706;2023-05-19T05:08:25;28.73;;;16.25;;
24145;SDS011;12308;50.948;4.706;2023-05-19T05:10:51;31.90;;;17.45;;
24145;SDS011;12308;50.948;4.706;2023-05-19T05:13:19;40.30;;;19.73;;
24145;SDS011;12308;50.948;4.706;2023-05-19T05:15:46;36.22;;;19.60;;
24145;SDS011;12308;50.948;4.706;2023-05-19T05:18:13;33.95;;;18.35;;
24145;SDS011;12308;50.948;4.706;2023-05-19T05:20:41;48.13;;;20.15;;
24145;SDS011;12308;50.948;4.706;2023-05-19T05:23:08;40.47;;;21.30;;
24145;SDS011;12308;50.948;4.706;2023-05-19T05:25:42;37.95;;;22.30;;
24145;SDS011;12308;50.948;4.706;2023-05-19T05:28:08;45.22;;;22.10;;
24145;SDS011;12308;50.948;4.706;2023-05-19T05:30:34;45.92;;;23.08;;
24145;SDS011;12308;50.948;4.706;2023-05-19T05:33:00;45.40;;;22.88;;
24145;SDS011;12308;50.948;4.706;2023-05-19T05:35:26;48.28;;;23.80;;
24145;SDS011;12308;50.948;4.706;2023-05-19T05:37:52;48.67;;;23.92;;
24145;SDS011;12308;50.948;4.706;2023-05-19T05:40:18;49.42;;;24.25;;
24145;SDS011;12308;50.948;4.706;2023-05-19T05:42:44;50.83;;;24.25;;
24145;SDS011;12308;50.948;4.706;2023-05-19T05:45:10;42.33;;;24.17;;
24145;SDS011;12308;50.948;4.706;2023-05-19T05:47:36;42.65;;;23.95;;
24145;SDS011;12308;50.948;4.706;2023-05-19T05:50:04;41.95;;;23.85;;
24145;SDS011;12308;50.948;4.706;2023-05-19T05:52:30;42.13;;;23.55;;
24145;SDS011;12308;50.948;4.706;2023-05-19T05:54:57;45.85;;;23.55;;
24145;SDS011;12308;50.948;4.706;2023-05-19T05:57:23;47.72;;;24.40;;
24145;SDS011;12308;50.948;4.706;2023-05-19T05:59:48;39.33;;;23.45;;
24145;SDS011;12308;50.948;4.706;2023-05-19T06:02:15;46.20;;;25.40;;
24145;SDS011;12308;50.948;4.706;2023-05-19T06:04:42;47.00;;;23.58;;
24145;SDS011;12308;50.948;4.706;2023-05-19T06:07:08;48.08;;;23.80;;
24145;SDS011;12308;50.948;4.706;2023-05-19T06:09:34;40.13;;;22.67;;
24145;SDS011;12308;50.948;4.706;2023-05-19T06:11:59;41.17;;;22.42;;
24145;SDS011;12308;50.948;4.706;2023-05-19T06:14:26;47.80;;;24.35;;
24145;SDS011;12308;50.948;4.706;2023-05-19T06:16:51;37.53;;;23.38;;
24145;SDS011;12308;50.948;4.706;2023-05-19T06:19:17;46.97;;;24.00;;
24145;SDS011;12308;50.948;4.706;2023-05-19T06:21:46;42.10;;;23.52;;
24145;SDS011;12308;50.948;4.706;2023-05-19T06:24:12;40.25;;;22.40;;
24145;SDS011;12308;50.948;4.706;2023-05-19T06:26:37;41.08;;;22.00;;
24145;SDS011;12308;50.948;4.706;2023-05-19T06:29:03;36.95;;;21.75;;
24145;SDS011;12308;50.948;4.706;2023-05-19T06:31:29;38.72;;;21.73;;
24145;SDS011;12308;50.948;4.706;2023-05-19T06:33:55;40.22;;;21.67;;
24145;SDS011;12308;50.948;4.706;2023-05-19T06:36:21;35.55;;;20.63;;
24145;SDS011;12308;50.948;4.706;2023-05-19T06:38:46;36.03;;;20.60;;
24145;SDS011;12308;50.948;4.706;2023-05-19T06:41:12;36.85;;;21.02;;
24145;SDS011;12308;50.948;4.706;2023-05-19T06:43:38;40.13;;;21.63;;
24145;SDS011;12308;50.948;4.706;2023-05-19T06:46:03;32.08;;;21.05;;
24145;SDS011;12308;50.948;4.706;2023-05-19T06:48:29;34.03;;;19.67;;
24145;SDS011;12308;50.948;4.706;2023-05-19T06:50:55;33.22;;;19.23;;
24145;SDS011;12308;50.948;4.706;2023-05-19T06:53:21;32.20;;;19.83;;
24145;SDS011;12308;50.948;4.706;2023-05-19T06:55:46;40.03;;;20.23;;
24145;SDS011;12308;50.948;4.706;2023-05-19T06:58:15;33.97;;;20.33;;
24145;SDS011;12308;50.948;4.706;2023-05-19T07:00:41;41.30;;;21.00;;
24145;SDS011;12308;50.948;4.706;2023-05-19T07:03:07;37.45;;;19.45;;
24145;SDS011;12308;50.948;4.706;2023-05-19T07:05:33;36.55;;;19.90;;
24145;SDS011;12308;50.948;4.706;2023-05-19T07:07:59;35.38;;;20.42;;
24145;SDS011;12308;50.948;4.706;2023-05-19T07:10:25;37.67;;;19.52;;
24145;SDS011;12308;50.948;4.706;2023-05-19T07:12:51;37.80;;;19.92;;
24145;SDS011;12308;50.948;4.706;2023-05-19T07:15:17;35.97;;;19.00;;
24145;SDS011;12308;50.948;4.706;2023-05-19T07:17:43;35.28;;;19.17;;
24145;SDS011;12308;50.948;4.706;2023-05-19T07:20:08;37.60;;;19.02;;
24145;SDS011;12308;50.948;4.706;2023-05-19T07:22:35;33.70;;;19.35;;
24145;SDS011;12308;50.948;4.706;2023-05-19T07:25:01;32.45;;;19.50;;
24145;SDS011;12308;50.948;4.706;2023-05-19T07:27:27;33.28;;;19.63;;
24145;SDS011;12308;50.948;4.706;2023-05-19T07:29:52;36.88;;;19.58;;
24145;SDS011;12308;50.948;4.706;2023-05-19T07:32:18;32.85;;;19.00;;
24145;SDS011;12308;50.948;4.706;2023-05-19T07:34:44;32.05;;;17.67;;
24145;SDS011;12308;50.948;4.706;2023-05-19T07:37:10;35.92;;;20.25;;
24145;SDS011;12308;50.948;4.706;2023-05-19T07:39:36;36.45;;;18.38;;
24145;SDS011;12308;50.948;4.706;2023-05-19T07:42:02;34.03;;;18.55;;
24145;SDS011;12308;50.948;4.706;2023-05-19T07:44:28;33.20;;;18.50;;
24145;SDS011;12308;50.948;4.706;2023-05-19T07:46:55;37.55;;;19.05;;
24145;SDS011;12308;50.948;4.706;2023-05-19T07:49:21;37.75;;;18.17;;
24145;SDS011;12308;50.948;4.706;2023-05-19T07:51:47;35.70;;;17.73;;
24145;SDS011;12308;50.948;4.706;2023-05-19T07:54:13;31.20;;;18.27;;
24145;SDS011;12308;50.948;4.706;2023-05-19T07:56:39;33.95;;;17.83;;
24145;SDS011;12308;50.948;4.706;2023-05-19T07:59:05;34.25;;;17.58;;
24145;SDS011;12308;50.948;4.706;2023-05-19T08:01:32;30.60;;;17.38;;
24145;SDS011;12308;50.948;4.706;2023-05-19T08:03:58;28.45;;;17.10;;
24145;SDS011;12308;50.948;4.706;2023-05-19T08:06:23;30.95;;;17.52;;
24145;SDS011;12308;50.948;4.706;2023-05-19T08:08:49;32.00;;;16.02;;
24145;SDS011;12308;50.948;4.706;2023-05-19T08:11:16;29.67;;;15.70;;
24145;SDS011;12308;50.948;4.706;2023-05-19T08:13:41;30.42;;;16.48;;
24145;SDS011;12308;50.948;4.706;2023-05-19T08:16:07;31.15;;;16.45;;
24145;SDS011;12308;50.948;4.706;2023-05-19T08:18:33;25.48;;;14.57;;
24145;SDS011;12308;50.948;4.706;2023-05-19T08:20:58;26.95;;;13.68;;
24145;SDS011;12308;50.948;4.706;2023-05-19T08:23:25;31.08;;;13.93;;
24145;SDS011;12308;50.948;4.706;2023-05-19T08:25:51;43.35;;;15.60;;
24145;SDS011;12308;50.948;4.706;2023-05-19T08:28:16;28.08;;;14.95;;
24145;SDS011;12308;50.948;4.706;2023-05-19T08:30:42;28.08;;;13.60;;
24145;SDS011;12308;50.948;4.706;2023-05-19T08:33:08;25.05;;;14.93;;
24145;SDS011;12308;50.948;4.706;2023-05-19T08:35:34;25.75;;;14.05;;
24145;SDS011;12308;50.948;4.706;2023-05-19T08:37:59;32.50;;;15.70;;
24145;SDS011;12308;50.948;4.706;2023-05-19T08:40:25;23.73;;;13.45;;
24145;SDS011;12308;50.948;4.706;2023-05-19T08:42:55;23.85;;;14.50;;
24145;SDS011;12308;50.948;4.706;2023-05-19T08:45:21;24.50;;;14.25;;
24145;SDS011;12308;50.948;4.706;2023-05-19T08:47:47;24.17;;;12.77;;
24145;SDS011;12308;50.948;4.706;2023-05-19T08:50:22;22.48;;;11.73;;
24145;SDS011;12308;50.948;4.706;2023-05-19T08:53:02;26.73;;;13.25;;
24145;SDS011;12308;50.948;4.706;2023-05-19T08:55:35;18.27;;;11.98;;
24145;SDS011;12308;50.948;4.706;2023-05-19T08:58:07;21.10;;;11.52;;
24145;SDS011;12308;50.948;4.706;2023-05-19T09:00:35;23.92;;;11.52;;
24145;SDS011;12308;50.948;4.706;2023-05-19T09:03:01;21.13;;;9.48;;
24145;SDS011;12308;50.948;4.706;2023-05-19T09:05:28;17.23;;;9.00;;
24145;SDS011;12308;50.948;4.706;2023-05-19T09:07:55;18.40;;;8.52;;
24145;SDS011;12308;50.948;4.706;2023-05-19T09:10:21;24.20;;;9.20;;
24145;SDS011;12308;50.948;4.706;2023-05-19T09:12:46;19.90;;;8.90;;
24145;SDS011;12308;50.948;4.706;2023-05-19T09:15:16;16.88;;;10.43;;
24145;SDS011;12308;50.948;4.706;2023-05-19T09:17:44;21.15;;;9.98;;
24145;SDS011;12308;50.948;4.706;2023-05-19T09:20:12;17.55;;;8.55;;
24145;SDS011;12308;50.948;4.706;2023-05-19T09:22:44;18.20;;;8.20;;
24145;SDS011;12308;50.948;4.706;2023-05-19T09:25:24;17.10;;;7.40;;
24145;SDS011;12308;50.948;4.706;2023-05-19T09:27:50;18.02;;;7.53;;
24145;SDS011;12308;50.948;4.706;2023-05-19T09:30:19;21.80;;;9.05;;
24145;SDS011;12308;50.948;4.706;2023-05-19T09:32:45;16.33;;;9.57;;
24145;SDS011;12308;50.948;4.706;2023-05-19T09:35:11;22.63;;;8.77;;
24145;SDS011;12308;50.948;4.706;2023-05-19T09:37:38;20.15;;;7.45;;
24145;SDS011;12308;50.948;4.706;2023-05-19T09:40:06;15.45;;;6.65;;
24145;SDS011;12308;50.948;4.706;2023-05-19T09:42:35;18.23;;;7.20;;
24145;SDS011;12308;50.948;4.706;2023-05-19T09:45:02;18.05;;;7.47;;
24145;SDS011;12308;50.948;4.706;2023-05-19T09:47:35;15.52;;;7.47;;
24145;SDS011;12308;50.948;4.706;2023-05-19T09:50:03;16.05;;;7.32;;
24145;SDS011;12308;50.948;4.706;2023-05-19T09:52:30;16.10;;;7.88;;
24145;SDS011;12308;50.948;4.706;2023-05-19T09:54:59;10.00;;;4.70;;
24145;SDS011;12308;50.948;4.706;2023-05-19T09:57:31;17.73;;;5.25;;
24145;SDS011;12308;50.948;4.706;2023-05-19T09:59:59;22.02;;;5.85;;
24145;SDS011;12308;50.948;4.706;2023-05-19T10:02:41;11.30;;;4.93;;
24145;SDS011;12308;50.948;4.706;2023-05-19T10:05:12;15.38;;;6.00;;
24145;SDS011;12308;50.948;4.706;2023-05-19T10:07:44;15.50;;;6.35;;
24145;SDS011;12308;50.948;4.706;2023-05-19T10:10:15;15.10;;;6.15;;
24145;SDS011;12308;50.948;4.706;2023-05-19T10:12:44;13.60;;;3.97;;
24145;SDS011;12308;50.948;4.706;2023-05-19T10:15:10;17.85;;;6.22;;
24145;SDS011;12308;50.948;4.706;2023-05-19T10:17:38;14.65;;;5.97;;
24145;SDS011;12308;50.948;4.706;2023-05-19T10:20:09;16.42;;;6.75;;
24145;SDS011;12308;50.948;4.706;2023-05-19T10:22:37;13.55;;;6.07;;
24145;SDS011;12308;50.948;4.706;2023-05-19T10:25:04;16.08;;;5.80;;
24145;SDS011;12308;50.948;4.706;2023-05-19T10:27:31;9.80;;;5.25;;
24145;SDS011;12308;50.948;4.706;2023-05-19T10:30:01;15.60;;;5.47;;
24145;SDS011;12308;50.948;4.706;2023-05-19T10:32:32;13.80;;;5.30;;
24145;SDS011;12308;50.948;4.706;2023-05-19T10:40:29;12.05;;;4.30;;
24145;SDS011;12308;50.948;4.706;2023-05-19T10:46:23;12.40;;;4.40;;
24145;SDS011;12308;50.948;4.706;2023-05-19T10:48:50;10.90;;;4.13;;
24145;SDS011;12308;50.948;4.706;2023-05-19T10:51:16;11.00;;;3.40;;
24145;SDS011;12308;50.948;4.706;2023-05-19T10:53:42;10.55;;;3.97;;
24145;SDS011;12308;50.948;4.706;2023-05-19T10:56:10;17.60;;;4.15;;
24145;SDS011;12308;50.948;4.706;2023-05-19T11:01:11;16.08;;;3.80;;
24145;SDS011;12308;50.948;4.706;2023-05-19T11:03:43;12.77;;;3.25;;
24145;SDS011;12308;50.948;4.706;2023-05-19T11:06:25;11.25;;;3.72;;
24145;SDS011;12308;50.948;4.706;2023-05-19T11:08:53;12.00;;;4.13;;
24145;SDS011;12308;50.948;4.706;2023-05-19T11:11:24;12.85;;;3.60;;
24145;SDS011;12308;50.948;4.706;2023-05-19T11:13:52;11.05;;;3.60;;
24145;SDS011;12308;50.948;4.706;2023-05-19T11:16:28;11.10;;;3.50;;
24145;SDS011;12308;50.948;4.706;2023-05-19T11:18:58;9.18;;;3.45;;
24145;SDS011;12308;50.948;4.706;2023-05-19T11:21:39;8.40;;;3.00;;
24145;SDS011;12308;50.948;4.706;2023-05-19T11:26:58;10.10;;;3.90;;
24145;SDS011;12308;50.948;4.706;2023-05-19T11:29:41;8.85;;;4.45;;
24145;SDS011;12308;50.948;4.706;2023-05-19T11:32:07;14.60;;;5.28;;
24145;SDS011;12308;50.948;4.706;2023-05-19T11:34:33;8.90;;;4.00;;
24145;SDS011;12308;50.948;4.706;2023-05-19T11:37:01;13.23;;;5.28;;
24145;SDS011;12308;50.948;4.706;2023-05-19T11:39:28;10.95;;;5.70;;
24145;SDS011;12308;50.948;4.706;2023-05-19T11:41:54;13.10;;;4.50;;
24145;SDS011;12308;50.948;4.706;2023-05-19T11:44:20;13.73;;;4.32;;
24145;SDS011;12308;50.948;4.706;2023-05-19T11:46:45;14.50;;;4.40;;
24145;SDS011;12308;50.948;4.706;2023-05-19T11:49:11;12.88;;;4.40;;
24145;SDS011;12308;50.948;4.706;2023-05-19T11:51:37;12.95;;;4.70;;
24145;SDS011;12308;50.948;4.706;2023-05-19T11:54:03;13.18;;;5.53;;
24145;SDS011;12308;50.948;4.706;2023-05-19T11:56:38;13.23;;;5.03;;
24145;SDS011;12308;50.948;4.706;2023-05-19T11:59:05;14.02;;;5.43;;
24145;SDS011;12308;50.948;4.706;2023-05-19T12:01:31;12.68;;;4.93;;
24145;SDS011;12308;50.948;4.706;2023-05-19T12:03:57;10.27;;;4.57;;
24145;SDS011;12308;50.948;4.706;2023-05-19T12:06:24;15.30;;;5.57;;
24145;SDS011;12308;50.948;4.706;2023-05-19T12:08:51;13.48;;;5.47;;
24145;SDS011;12308;50.948;4.706;2023-05-19T12:11:18;10.52;;;4.85;;
24145;SDS011;12308;50.948;4.706;2023-05-19T12:13:44;13.48;;;5.15;;
24145;SDS011;12308;50.948;4.706;2023-05-19T12:16:10;13.02;;;4.80;;
24145;SDS011;12308;50.948;4.706;2023-05-19T12:18:36;13.13;;;5.18;;
24145;SDS011;12308;50.948;4.706;2023-05-19T12:21:03;10.80;;;4.70;;
24145;SDS011;12308;50.948;4.706;2023-05-19T12:23:29;11.20;;;4.30;;
24145;SDS011;12308;50.948;4.706;2023-05-19T12:25:56;10.65;;;4.68;;
24145;SDS011;12308;50.948;4.706;2023-05-19T12:28:23;12.95;;;4.80;;
24145;SDS011;12308;50.948;4.706;2023-05-19T12:30:49;11.13;;;4.47;;
24145;SDS011;12308;50.948;4.706;2023-05-19T12:33:16;10.10;;;4.53;;
24145;SDS011;12308;50.948;4.706;2023-05-19T12:35:44;14.43;;;5.10;;
24145;SDS011;12308;50.948;4.706;2023-05-19T12:38:12;8.73;;;4.40;;
24145;SDS011;12308;50.948;4.706;2023-05-19T12:40:39;14.80;;;4.53;;
24145;SDS011;12308;50.948;4.706;2023-05-19T12:43:05;14.55;;;4.28;;
24145;SDS011;12308;50.948;4.706;2023-05-19T12:45:34;10.98;;;4.10;;
24145;SDS011;12308;50.948;4.706;2023-05-19T12:48:43;12.80;;;4.68;;
24145;SDS011;12308;50.948;4.706;2023-05-19T12:50:52;13.90;;;4.53;;
24145;SDS011;12308;50.948;4.706;2023-05-19T12:53:19;10.98;;;3.90;;
24145;SDS011;12308;50.948;4.706;2023-05-19T12:55:45;10.13;;;3.83;;
24145;SDS011;12308;50.948;4.706;2023-05-19T12:58:11;8.63;;;3.70;;
24145;SDS011;12308;50.948;4.706;2023-05-19T13:00:40;9.93;;;4.00;;
24145;SDS011;12308;50.948;4.706;2023-05-19T13:03:13;13.73;;;4.10;;
24145;SDS011;12308;50.948;4.706;2023-05-19T13:05:41;13.15;;;4.05;;
24145;SDS011;12308;50.948;4.706;2023-05-19T13:08:09;13.13;;;3.63;;
24145;SDS011;12308;50.948;4.706;2023-05-19T13:10:36;8.88;;;3.40;;
24145;SDS011;12308;50.948;4.706;2023-05-19T13:13:02;10.68;;;3.63;;
24145;SDS011;12308;50.948;4.706;2023-05-19T13:15:30;9.68;;;3.72;;
24145;SDS011;12308;50.948;4.706;2023-05-19T13:18:02;9.35;;;4.13;;
24145;SDS011;12308;50.948;4.706;2023-05-19T13:20:30;8.93;;;3.30;;
24145;SDS011;12308;50.948;4.706;2023-05-19T13:22:57;9.25;;;3.65;;
24145;SDS011;12308;50.948;4.706;2023-05-19T13:25:23;8.85;;;4.13;;
24145;SDS011;12308;50.948;4.706;2023-05-19T13:27:49;9.48;;;3.90;;
24145;SDS011;12308;50.948;4.706;2023-05-19T13:30:16;14.10;;;3.83;;
24145;SDS011;12308;50.948;4.706;2023-05-19T13:32:42;9.05;;;3.88;;
24145;SDS011;12308;50.948;4.706;2023-05-19T13:35:08;12.60;;;4.13;;
24145;SDS011;12308;50.948;4.706;2023-05-19T13:37:34;10.85;;;3.90;;
24145;SDS011;12308;50.948;4.706;2023-05-19T13:40:00;11.90;;;4.15;;
24145;SDS011;12308;50.948;4.706;2023-05-19T13:42:26;10.30;;;3.38;;
24145;SDS011;12308;50.948;4.706;2023-05-19T13:44:55;8.48;;;3.25;;
24145;SDS011;12308;50.948;4.706;2023-05-19T13:47:23;8.50;;;3.20;;
24145;SDS011;12308;50.948;4.706;2023-05-19T13:49:49;11.07;;;3.60;;
24145;SDS011;12308;50.948;4.706;2023-05-19T13:52:16;9.23;;;3.70;;
24145;SDS011;12308;50.948;4.706;2023-05-19T13:54:42;8.52;;;3.78;;
24145;SDS011;12308;50.948;4.706;2023-05-19T13:57:08;12.50;;;3.40;;
24145;SDS011;12308;50.948;4.706;2023-05-19T13:59:33;10.55;;;3.63;;
24145;SDS011;12308;50.948;4.706;2023-05-19T14:02:00;16.90;;;4.43;;
24145;SDS011;12308;50.948;4.706;2023-05-19T14:04:29;8.70;;;3.83;;
24145;SDS011;12308;50.948;4.706;2023-05-19T14:06:55;11.73;;;3.67;;
24145;SDS011;12308;50.948;4.706;2023-05-19T14:09:21;10.10;;;3.60;;
24145;SDS011;12308;50.948;4.706;2023-05-19T14:11:47;10.77;;;3.75;;
24145;SDS011;12308;50.948;4.706;2023-05-19T14:14:12;11.07;;;3.40;;
24145;SDS011;12308;50.948;4.706;2023-05-19T14:16:39;7.97;;;3.88;;
24145;SDS011;12308;50.948;4.706;2023-05-19T14:19:05;9.75;;;3.55;;
24145;SDS011;12308;50.948;4.706;2023-05-19T14:21:31;9.30;;;3.72;;
24145;SDS011;12308;50.948;4.706;2023-05-19T14:23:57;11.93;;;3.58;;
24145;SDS011;12308;50.948;4.706;2023-05-19T14:26:23;14.50;;;3.65;;
24145;SDS011;12308;50.948;4.706;2023-05-19T14:28:50;9.20;;;3.40;;
24145;SDS011;12308;50.948;4.706;2023-05-19T14:31:15;8.68;;;3.45;;
24145;SDS011;12308;50.948;4.706;2023-05-19T14:33:41;7.95;;;3.40;;
24145;SDS011;12308;50.948;4.706;2023-05-19T14:36:07;9.38;;;3.42;;
24145;SDS011;12308;50.948;4.706;2023-05-19T14:38:34;11.15;;;3.65;;
24145;SDS011;12308;50.948;4.706;2023-05-19T14:40:59;12.70;;;3.78;;
24145;SDS011;12308;50.948;4.706;2023-05-19T14:43:25;12.02;;;3.53;;
24145;SDS011;12308;50.948;4.706;2023-05-19T14:45:51;12.20;;;4.15;;
24145;SDS011;12308;50.948;4.706;2023-05-19T14:48:17;11.43;;;3.85;;
24145;SDS011;12308;50.948;4.706;2023-05-19T14:50:43;6.90;;;3.15;;
24145;SDS011;12308;50.948;4.706;2023-05-19T14:53:10;15.15;;;4.10;;
24145;SDS011;12308;50.948;4.706;2023-05-19T14:55:35;9.13;;;4.10;;
24145;SDS011;12308;50.948;4.706;2023-05-19T14:58:01;10.45;;;4.15;;
24145;SDS011;12308;50.948;4.706;2023-05-19T15:00:27;8.57;;;3.47;;